Terminal Aerodrome Forecast
Issued by NWS

Home | Current Version | Previous Version | Text Only | Print | Product List | Glossary On
Versions: 1 2 3 4 5 6 7 8 9 10 11 12 13 14 15 16 17 18 19 20 21 22 23 24 25 26 27 28 29 30 31
000
FTUS41 KOKX 012025 AAB
TAFSWF
TAF AMD
KSWF 012025Z 0120/0224 32010G16KT P6SM FEW050
     FM012300 30005KT P6SM SKC
     FM020400 VRB03KT P6SM FEW040 SCT250
     FM021100 23003KT P6SM SCT040 BKN150
     FM021400 23008KT P6SM FEW040 SCT250
     FM021700 22011G18KT P6SM SCT040 BKN250
     FM022000 22015G24KT P6SM SCT040 BKN250
      AMD NOT SKED=

USA.gov is the U.S. government's official web portal to all federal, state and local government web resources and services.